createdAt,value
2018-04-29T00:40:39.365Z,2.60
2018-04-29T00:43:05.912Z,2.87
2018-04-29T00:45:32.505Z,2.60
2018-04-29T00:47:59.092Z,2.80
2018-04-29T00:50:25.950Z,3.23
2018-04-29T00:52:53.293Z,2.60
2018-04-29T00:55:19.855Z,2.40
2018-04-29T00:57:46.912Z,2.97
2018-04-29T01:00:13.481Z,2.83
2018-04-29T01:02:40.077Z,2.60
2018-04-29T01:05:06.633Z,2.40
2018-04-29T01:07:34.079Z,2.60
2018-04-29T01:10:00.640Z,2.50
2018-04-29T01:12:27.223Z,2.50
2018-04-29T01:14:53.844Z,3.00
2018-04-29T01:17:20.420Z,2.70
2018-04-29T01:19:47.056Z,2.57
2018-04-29T01:22:13.617Z,2.50
2018-04-29T01:24:41.717Z,2.83
2018-04-29T01:27:08.281Z,2.60
2018-04-29T01:29:35.585Z,2.40
2018-04-29T01:32:02.149Z,2.60
2018-04-29T01:34:28.741Z,2.30
2018-04-29T01:36:55.305Z,2.50
2018-04-29T01:39:21.864Z,2.60
2018-04-29T01:41:48.432Z,2.73
2018-04-29T01:44:15.011Z,2.40
2018-04-29T01:46:41.613Z,2.50
2018-04-29T01:49:08.193Z,2.30
2018-04-29T01:51:34.794Z,2.40
2018-04-29T01:54:01.325Z,2.53
2018-04-29T01:56:27.885Z,2.77
2018-04-29T01:58:54.462Z,2.47
2018-04-29T02:01:21.034Z,2.37
2018-04-29T02:03:47.694Z,2.57
2018-04-29T02:06:14.853Z,2.63
2018-04-29T02:08:41.421Z,2.50
2018-04-29T02:11:07.990Z,2.77
2018-04-29T02:13:34.564Z,3.00
2018-04-29T02:16:01.277Z,2.60
2018-04-29T02:18:27.819Z,2.30
2018-04-29T02:20:54.398Z,2.27
2018-04-29T02:23:20.957Z,2.70
2018-04-29T02:25:47.532Z,2.73
2018-04-29T02:28:14.597Z,2.43
2018-04-29T02:30:41.170Z,2.73
2018-04-29T02:33:07.754Z,2.90
2018-04-29T02:35:34.318Z,3.07
2018-04-29T02:38:00.890Z,2.80
2018-04-29T02:40:27.469Z,2.60
2018-04-29T02:42:54.036Z,2.80
2018-04-29T02:45:21.357Z,3.10
2018-04-29T02:47:47.929Z,3.07
2018-04-29T02:50:14.520Z,3.07
2018-04-29T02:52:41.081Z,3.07
2018-04-29T02:55:07.680Z,2.80
2018-04-29T02:57:34.226Z,2.80
2018-04-29T03:00:00.795Z,3.00
2018-04-29T03:02:27.369Z,2.90
2018-04-29T03:04:53.937Z,3.20
2018-04-29T03:07:20.513Z,3.63
2018-04-29T03:09:47.102Z,3.30
2018-04-29T03:12:13.721Z,3.00
2018-04-29T03:14:40.295Z,3.10
2018-04-29T03:17:06.868Z,3.30
2018-04-29T03:19:33.432Z,3.40
2018-04-29T03:22:00.000Z,3.17
2018-04-29T03:24:26.574Z,4.20
2018-04-29T03:26:53.141Z,4.17
2018-04-29T03:29:21.289Z,4.03
2018-04-29T03:31:47.874Z,4.20
2018-04-29T03:34:14.441Z,4.07
2018-04-29T03:36:41.759Z,4.13
2018-04-29T03:39:08.341Z,3.77
2018-04-29T03:41:35.527Z,4.00
2018-04-29T03:44:02.101Z,4.00
2018-04-29T03:46:28.677Z,4.17
2018-04-29T03:48:55.551Z,3.97
2018-04-29T03:51:22.113Z,3.50
2018-04-29T03:53:49.358Z,3.60
2018-04-29T03:56:16.588Z,3.70
2018-04-29T03:58:48.968Z,4.90
2018-04-29T04:01:21.277Z,3.50
2018-04-29T04:03:52.765Z,3.77
2018-04-29T04:06:19.329Z,3.50
2018-04-29T04:08:45.904Z,4.10
2018-04-29T04:11:12.598Z,3.40
2018-04-29T04:13:39.131Z,3.80
2018-04-29T04:16:05.704Z,4.00
2018-04-29T04:18:32.261Z,3.60
2018-04-29T04:20:58.836Z,3.50
2018-04-29T04:23:25.405Z,3.90
2018-04-29T04:25:51.990Z,3.77
2018-04-29T04:28:18.632Z,3.53
2018-04-29T04:30:45.185Z,4.20
2018-04-29T04:33:12.296Z,3.80
2018-04-29T04:35:38.925Z,4.37
2018-04-29T04:38:05.490Z,3.90
2018-04-29T04:40:32.059Z,3.80
2018-04-29T04:42:58.673Z,3.83
2018-04-29T04:45:25.237Z,4.10
2018-04-29T04:47:51.804Z,3.60
2018-04-29T04:50:18.384Z,3.63
2018-04-29T04:52:44.969Z,3.70
2018-04-29T04:55:11.538Z,3.50
2018-04-29T04:57:38.633Z,3.33
2018-04-29T05:00:05.196Z,3.73
2018-04-29T05:02:32.777Z,3.60
2018-04-29T05:04:59.354Z,3.53
2018-04-29T05:07:26.003Z,4.20
2018-04-29T05:09:52.493Z,3.53
2018-04-29T05:12:19.073Z,3.50
2018-04-29T05:14:45.647Z,4.10
2018-04-29T05:17:12.220Z,3.50
2018-04-29T05:19:38.789Z,3.50
2018-04-29T05:22:05.437Z,4.00
2018-04-29T05:24:31.949Z,3.93
2018-04-29T05:26:58.515Z,3.87
2018-04-29T05:29:25.086Z,3.60
2018-04-29T05:31:51.659Z,3.50
2018-04-29T05:34:18.221Z,3.40
2018-04-29T05:36:44.781Z,3.73
2018-04-29T05:39:11.383Z,4.47
2018-04-29T05:41:37.958Z,4.17
2018-04-29T05:44:05.306Z,3.90
2018-04-29T05:46:31.880Z,3.60
2018-04-29T05:48:59.445Z,3.70
2018-04-29T05:51:26.006Z,3.97
2018-04-29T05:53:52.577Z,3.93
2018-04-29T05:56:19.673Z,3.80
2018-04-29T05:58:46.232Z,3.87
2018-04-29T06:01:12.805Z,3.50
2018-04-29T06:03:39.403Z,3.90
2018-04-29T06:06:06.980Z,3.97
2018-04-29T06:08:33.541Z,4.13
2018-04-29T06:11:00.125Z,3.93
2018-04-29T06:13:26.686Z,3.70
2018-04-29T06:15:53.287Z,3.80
2018-04-29T06:18:19.861Z,4.33
2018-04-29T06:20:46.433Z,4.10
2018-04-29T06:23:12.999Z,4.13
2018-04-29T06:25:39.574Z,4.13
2018-04-29T06:28:06.172Z,3.80
2018-04-29T06:30:32.722Z,3.90
2018-04-29T06:32:59.301Z,4.03
2018-04-29T06:35:25.866Z,3.63
2018-04-29T06:37:52.448Z,4.03
2018-04-29T06:40:19.025Z,3.87
2018-04-29T06:42:45.590Z,4.13
2018-04-29T06:45:12.917Z,4.00
2018-04-29T06:47:39.477Z,4.23
2018-04-29T06:50:06.033Z,4.00
2018-04-29T06:52:32.606Z,4.13
2018-04-29T06:54:59.171Z,4.30
2018-04-29T06:57:25.753Z,3.87
2018-04-29T06:59:52.313Z,4.10
2018-04-29T07:02:18.885Z,4.23
2018-04-29T07:04:45.484Z,4.57
2018-04-29T07:07:12.041Z,4.70
2018-04-29T07:09:39.221Z,4.80
2018-04-29T07:12:05.781Z,4.30
2018-04-29T07:14:32.393Z,5.10
2018-04-29T07:16:58.969Z,4.80
2018-04-29T07:19:25.558Z,4.03
2018-04-29T07:21:52.110Z,5.00
2018-04-29T07:24:18.696Z,4.60
2018-04-29T07:26:45.257Z,4.90
2018-04-29T07:29:11.855Z,5.20
2018-04-29T07:31:38.419Z,4.57
2018-04-29T07:34:05.102Z,4.70
2018-04-29T07:36:31.694Z,4.87
2018-04-29T07:38:58.240Z,5.10
2018-04-29T07:41:24.812Z,5.13
2018-04-29T07:43:51.373Z,5.07
2018-04-29T07:46:17.951Z,4.87
2018-04-29T07:48:44.694Z,4.77
2018-04-29T07:51:11.276Z,4.80
2018-04-29T07:53:37.841Z,4.10
2018-04-29T07:56:04.418Z,4.20
2018-04-29T07:58:30.973Z,4.13
2018-04-29T08:00:57.541Z,4.20
2018-04-29T08:03:24.109Z,4.10
2018-04-29T08:05:50.688Z,4.00
2018-04-29T08:08:17.256Z,4.27
2018-04-29T08:10:43.843Z,4.00
2018-04-29T08:13:10.516Z,4.27
2018-04-29T08:15:37.155Z,3.80
2018-04-29T08:18:03.662Z,3.63
2018-04-29T08:20:30.251Z,3.60
2018-04-29T08:22:56.833Z,3.87
2018-04-29T08:25:23.401Z,4.20
2018-04-29T08:27:49.997Z,3.80
2018-04-29T08:30:16.561Z,4.97
2018-04-29T08:32:43.157Z,4.30
2018-04-29T08:35:09.721Z,4.20
2018-04-29T08:37:36.294Z,3.90
2018-04-29T08:40:02.890Z,3.60
2018-04-29T08:42:29.709Z,3.40
2018-04-29T08:44:56.278Z,3.60
2018-04-29T08:47:22.833Z,3.23
2018-04-29T08:49:49.410Z,3.30
2018-04-29T08:52:16.021Z,3.43
2018-04-29T08:54:42.592Z,3.00
2018-04-29T08:57:09.236Z,3.10
2018-04-29T08:59:35.815Z,3.13
2018-04-29T09:02:02.377Z,3.20
2018-04-29T09:04:28.954Z,2.83
2018-04-29T09:06:55.522Z,2.60
2018-04-29T09:09:22.099Z,2.90
2018-04-29T09:11:48.665Z,3.00
2018-04-29T09:14:15.361Z,3.47
2018-04-29T09:16:41.933Z,3.00
2018-04-29T09:19:08.505Z,3.10
2018-04-29T09:21:35.076Z,3.80
2018-04-29T09:24:01.641Z,3.17
2018-04-29T09:26:28.243Z,3.40
2018-04-29T09:28:54.821Z,3.03
2018-04-29T09:31:21.393Z,3.60
2018-04-29T09:33:48.000Z,3.40
2018-04-29T09:36:14.565Z,3.43
2018-04-29T09:38:41.142Z,3.23
2018-04-29T09:41:07.708Z,3.67
2018-04-29T09:43:34.348Z,3.40
2018-04-29T09:46:00.844Z,3.20
2018-04-29T09:48:27.405Z,3.17
2018-04-29T09:50:53.977Z,3.10
2018-04-29T09:53:20.541Z,3.03
2018-04-29T09:55:47.128Z,3.40
2018-04-29T09:58:13.696Z,3.53
2018-04-29T10:00:40.293Z,3.20
2018-04-29T10:03:07.761Z,3.63
2018-04-29T10:05:34.326Z,2.73
2018-04-29T10:08:00.931Z,3.53
2018-04-29T10:10:27.495Z,3.20
2018-04-29T10:12:55.412Z,3.50
2018-04-29T10:15:21.985Z,3.33
2018-04-29T10:17:48.546Z,3.90
2018-04-29T10:20:15.113Z,3.57
2018-04-29T10:22:41.781Z,3.40
2018-04-29T10:25:08.345Z,3.60
2018-04-29T10:27:34.921Z,3.30
2018-04-29T10:30:01.507Z,3.47
2018-04-29T10:32:28.154Z,3.20
2018-04-29T10:34:54.645Z,3.37
2018-04-29T10:37:21.218Z,3.87
2018-04-29T10:39:47.788Z,3.23
2018-04-29T10:42:14.353Z,2.93
2018-04-29T10:44:40.960Z,3.20
2018-04-29T10:47:07.553Z,3.57
2018-04-29T10:49:34.132Z,3.50
2018-04-29T10:52:00.693Z,3.40
2018-04-29T10:54:27.277Z,3.67
2018-04-29T10:56:53.847Z,3.77
2018-04-29T10:59:20.434Z,3.70
2018-04-29T11:01:46.995Z,3.37
2018-04-29T11:04:13.593Z,3.60
2018-04-29T11:06:40.159Z,3.30
2018-04-29T11:09:06.790Z,3.50
2018-04-29T11:11:33.358Z,3.53
2018-04-29T11:13:59.927Z,3.10
2018-04-29T11:16:26.499Z,3.67
2018-04-29T11:18:53.072Z,3.20
2018-04-29T11:21:19.653Z,3.57
2018-04-29T11:23:46.226Z,3.47
2018-04-29T11:26:12.849Z,3.57
2018-04-29T11:28:39.410Z,3.60
2018-04-29T11:31:05.994Z,3.50
2018-04-29T11:33:32.538Z,3.87
2018-04-29T11:35:59.118Z,3.60
2018-04-29T11:38:25.680Z,3.30
2018-04-29T11:40:52.253Z,3.57
2018-04-29T11:43:18.825Z,3.73
2018-04-29T11:45:45.426Z,3.73
2018-04-29T11:48:12.009Z,3.60
2018-04-29T11:50:38.580Z,3.70
2018-04-29T11:53:05.180Z,3.53
2018-04-29T11:55:31.741Z,4.20
2018-04-29T11:57:58.320Z,3.93
2018-04-29T12:00:24.881Z,3.63
2018-04-29T12:02:51.527Z,4.20
2018-04-29T12:05:18.080Z,3.70
2018-04-29T12:07:44.690Z,3.47
2018-04-29T12:10:11.308Z,3.70
2018-04-29T12:12:37.880Z,4.20
2018-04-29T12:15:04.471Z,4.27
2018-04-29T12:17:31.046Z,3.40
2018-04-29T12:19:57.614Z,3.97
2018-04-29T12:22:24.219Z,3.60
2018-04-29T12:24:50.796Z,3.50
2018-04-29T12:27:17.361Z,3.67
2018-04-29T12:29:44.071Z,3.70
2018-04-29T12:32:10.625Z,4.20
2018-04-29T12:34:37.197Z,3.53
2018-04-29T12:37:03.761Z,4.00
2018-04-29T12:39:30.339Z,4.20
2018-04-29T12:41:56.910Z,3.80
2018-04-29T12:44:23.485Z,3.93
2018-04-29T12:46:50.056Z,3.93
2018-04-29T12:49:16.637Z,4.10
2018-04-29T12:51:43.205Z,3.63
2018-04-29T12:54:09.772Z,3.97
2018-04-29T12:56:36.337Z,3.67
2018-04-29T12:59:02.933Z,3.70
2018-04-29T13:01:29.502Z,3.53
2018-04-29T13:03:56.154Z,3.90
2018-04-29T13:06:22.741Z,3.30
2018-04-29T13:08:49.866Z,4.10
2018-04-29T13:11:16.442Z,3.90
2018-04-29T13:13:43.013Z,3.47
2018-04-29T13:16:09.580Z,4.10
2018-04-29T13:18:36.153Z,3.47
2018-04-29T13:21:02.726Z,3.73
2018-04-29T13:23:29.295Z,3.27
2018-04-29T13:25:55.892Z,3.53
2018-04-29T13:28:22.439Z,3.70
2018-04-29T13:30:49.015Z,3.57
2018-04-29T13:33:15.601Z,3.87
2018-04-29T13:35:42.252Z,4.30
2018-04-29T13:38:08.772Z,4.10
2018-04-29T13:40:35.379Z,3.83
2018-04-29T13:43:02.181Z,3.17
2018-04-29T13:45:28.782Z,3.67
2018-04-29T13:47:55.413Z,3.50
2018-04-29T13:50:21.949Z,3.50
2018-04-29T13:52:48.529Z,3.60
2018-04-29T13:55:21.007Z,3.47
2018-04-29T13:57:47.565Z,3.70
2018-04-29T14:00:14.133Z,3.37
2018-04-29T14:02:40.737Z,4.23
2018-04-29T14:05:07.309Z,3.87
2018-04-29T14:07:33.937Z,3.30
2018-04-29T14:10:00.515Z,3.20
2018-04-29T14:12:27.969Z,3.13
2018-04-29T14:14:54.513Z,3.60
2018-04-29T14:17:21.434Z,3.67
2018-04-29T14:19:48.085Z,3.27
2018-04-29T14:22:14.601Z,3.40
2018-04-29T14:24:41.237Z,2.90
2018-04-29T14:27:10.382Z,3.00
2018-04-29T14:29:37.093Z,3.30
2018-04-29T14:32:03.749Z,3.33
2018-04-29T14:34:30.301Z,3.80
2018-04-29T14:36:56.866Z,4.03
2018-04-29T14:39:23.441Z,3.33
2018-04-29T14:41:50.009Z,3.03
2018-04-29T14:44:16.586Z,3.37
2018-04-29T14:46:43.177Z,3.27
2018-04-29T14:49:09.766Z,3.30
2018-04-29T14:51:36.330Z,3.13
2018-04-29T14:54:02.894Z,3.20
2018-04-29T14:56:29.497Z,3.70
2018-04-29T14:58:56.074Z,3.33
2018-04-29T15:01:22.849Z,3.43
2018-04-29T15:03:49.320Z,3.30
2018-04-29T15:06:15.929Z,3.70
2018-04-29T15:08:42.506Z,3.30
2018-04-29T15:11:09.074Z,3.63
2018-04-29T15:13:42.150Z,3.63
2018-04-29T15:16:10.283Z,3.90
2018-04-29T15:18:42.663Z,3.67
2018-04-29T15:21:09.289Z,3.43
2018-04-29T15:23:35.853Z,3.53
2018-04-29T15:26:02.488Z,3.90
2018-04-29T15:28:31.305Z,3.60
2018-04-29T15:30:57.910Z,3.30
2018-04-29T15:33:24.487Z,4.03
2018-04-29T15:35:51.074Z,3.83
2018-04-29T15:38:18.761Z,3.77
2018-04-29T15:40:45.338Z,3.53
2018-04-29T15:43:11.909Z,3.53
2018-04-29T15:45:38.473Z,3.60
2018-04-29T15:48:05.295Z,3.50
2018-04-29T15:50:31.874Z,3.93
2018-04-29T15:52:59.061Z,3.40
2018-04-29T15:55:25.629Z,3.40
2018-04-29T15:57:53.310Z,3.50
2018-04-29T16:00:19.877Z,3.37
2018-04-29T16:02:50.092Z,3.53
2018-04-29T16:05:19.690Z,3.77
2018-04-29T16:07:47.136Z,3.67
2018-04-29T16:10:13.716Z,3.80
2018-04-29T16:12:40.293Z,3.40
2018-04-29T16:15:06.871Z,3.30
2018-04-29T16:17:33.446Z,3.50
2018-04-29T16:20:00.021Z,3.30
2018-04-29T16:22:26.638Z,3.47
2018-04-29T16:24:53.207Z,3.70
2018-04-29T16:27:19.784Z,3.70
2018-04-29T16:29:46.353Z,3.80
2018-04-29T16:32:12.989Z,3.67
2018-04-29T16:34:39.577Z,3.43
2018-04-29T16:37:06.201Z,3.47
2018-04-29T16:39:32.765Z,3.70
2018-04-29T16:41:59.333Z,3.47
2018-04-29T16:44:25.941Z,3.80
2018-04-29T16:46:52.465Z,3.80
2018-04-29T16:49:19.074Z,3.80
2018-04-29T16:51:45.645Z,3.80
2018-04-29T16:54:13.288Z,3.23
2018-04-29T16:56:39.877Z,3.67
2018-04-29T16:59:06.450Z,3.50
2018-04-29T17:01:33.021Z,3.37
2018-04-29T17:03:59.601Z,3.30
2018-04-29T17:06:26.165Z,3.80
2018-04-29T17:08:52.741Z,3.73
2018-04-29T17:11:19.300Z,3.77
2018-04-29T17:13:45.874Z,3.80
2018-04-29T17:16:12.475Z,3.67
2018-04-29T17:18:39.045Z,4.07
2018-04-29T17:21:05.619Z,4.00
2018-04-29T17:23:32.200Z,3.77
2018-04-29T17:25:58.773Z,3.93
2018-04-29T17:28:25.340Z,3.73
2018-04-29T17:30:52.005Z,3.87
2018-04-29T17:33:18.608Z,3.60
2018-04-29T17:35:45.189Z,3.73
2018-04-29T17:38:11.799Z,3.57
2018-04-29T17:40:38.327Z,4.00
2018-04-29T17:43:04.903Z,4.03
2018-04-29T17:45:31.465Z,3.87
2018-04-29T17:47:58.037Z,3.90
2018-04-29T17:50:24.605Z,3.70
2018-04-29T17:52:51.192Z,4.20
2018-04-29T17:55:17.757Z,4.23
2018-04-29T17:57:44.333Z,4.67
2018-04-29T18:00:11.124Z,3.70
2018-04-29T18:02:37.687Z,3.97
2018-04-29T18:05:04.253Z,4.27
2018-04-29T18:07:30.829Z,4.03
2018-04-29T18:09:57.402Z,4.20
2018-04-29T18:12:23.977Z,4.00
2018-04-29T18:14:50.546Z,4.40
2018-04-29T18:17:17.124Z,4.27
2018-04-29T18:19:43.717Z,4.60
2018-04-29T18:22:10.296Z,4.20
2018-04-29T18:24:36.865Z,4.20
2018-04-29T18:27:03.448Z,4.37
2018-04-29T18:29:30.026Z,4.30
2018-04-29T18:31:56.611Z,3.77
2018-04-29T18:34:23.177Z,4.33
2018-04-29T18:36:49.752Z,3.97
2018-04-29T18:39:16.330Z,4.37
2018-04-29T18:41:42.911Z,5.00
2018-04-29T18:44:09.515Z,4.50
2018-04-29T18:46:36.061Z,5.10
2018-04-29T18:49:02.705Z,5.10
2018-04-29T18:51:29.506Z,4.40
2018-04-29T18:53:55.992Z,4.40
2018-04-29T18:56:22.640Z,4.63
2018-04-29T18:58:49.962Z,4.50
2018-04-29T19:01:16.833Z,4.90
2018-04-29T19:03:43.411Z,5.13
2018-04-29T19:06:09.973Z,4.53
2018-04-29T19:08:36.543Z,4.87
2018-04-29T19:11:03.110Z,4.87
2018-04-29T19:13:29.714Z,4.80
2018-04-29T19:15:56.293Z,4.77
2018-04-29T19:18:22.857Z,4.37
2018-04-29T19:20:49.424Z,4.63
2018-04-29T19:23:16.008Z,4.20
2018-04-29T19:25:42.586Z,4.63
2018-04-29T19:28:09.174Z,4.50
2018-04-29T19:30:35.742Z,4.60
2018-04-29T19:33:02.540Z,4.30
2018-04-29T19:35:29.085Z,4.63
2018-04-29T19:37:56.093Z,4.50
2018-04-29T19:40:22.653Z,4.40
2018-04-29T19:42:49.290Z,4.07
2018-04-29T19:45:16.195Z,4.30
2018-04-29T19:47:42.764Z,4.53
2018-04-29T19:50:09.337Z,4.60
2018-04-29T19:52:35.921Z,4.27
2018-04-29T19:55:02.593Z,3.90
2018-04-29T19:57:29.102Z,4.70
2018-04-29T19:59:55.689Z,4.47
2018-04-29T20:02:22.249Z,5.17
2018-04-29T20:04:48.837Z,3.93
2018-04-29T20:07:15.447Z,4.40
2018-04-29T20:09:41.993Z,4.50
2018-04-29T20:12:08.647Z,4.53
2018-04-29T20:14:35.215Z,4.67
2018-04-29T20:17:01.782Z,4.67
2018-04-29T20:19:28.345Z,4.57
2018-04-29T20:21:54.917Z,4.63
2018-04-29T20:24:21.479Z,5.03
2018-04-29T20:26:48.061Z,4.90
2018-04-29T20:29:14.634Z,4.60
2018-04-29T20:31:41.729Z,4.70
2018-04-29T20:34:08.354Z,4.60
2018-04-29T20:36:35.221Z,4.33
2018-04-29T20:39:01.817Z,4.30
2018-04-29T20:41:28.381Z,4.13
2018-04-29T20:43:54.953Z,4.60
2018-04-29T20:46:21.526Z,4.13
2018-04-29T20:48:48.089Z,4.63
2018-04-29T20:51:14.653Z,4.50
2018-04-29T20:53:41.226Z,4.77
2018-04-29T20:56:07.798Z,4.40
2018-04-29T20:58:34.381Z,4.47
2018-04-29T21:01:01.593Z,4.27
2018-04-29T21:03:28.192Z,4.80
2018-04-29T21:05:54.745Z,4.63
2018-04-29T21:08:21.318Z,4.20
2018-04-29T21:10:48.042Z,4.30
2018-04-29T21:13:14.585Z,5.00
2018-04-29T21:15:41.159Z,4.57
2018-04-29T21:18:07.727Z,4.60
2018-04-29T21:20:34.306Z,4.70
2018-04-29T21:23:00.888Z,4.50
2018-04-29T21:25:28.382Z,4.33
2018-04-29T21:27:54.982Z,4.70
2018-04-29T21:30:21.552Z,5.03
2018-04-29T21:32:48.117Z,4.53
2018-04-29T21:35:14.693Z,4.80
2018-04-29T21:37:41.266Z,5.10
2018-04-29T21:40:07.831Z,4.90
2018-04-29T21:42:34.402Z,4.70
2018-04-29T21:45:01.340Z,4.53
2018-04-29T21:47:27.917Z,4.60
2018-04-29T21:49:54.481Z,4.70
2018-04-29T21:52:21.041Z,4.60
2018-04-29T21:54:47.616Z,5.10
2018-04-29T21:57:14.192Z,5.47
2018-04-29T21:59:40.801Z,5.20
2018-04-29T22:02:07.389Z,5.20
2018-04-29T22:04:33.972Z,4.97
2018-04-29T22:07:00.524Z,5.40
2018-04-29T22:09:27.149Z,4.70
2018-04-29T22:11:53.713Z,5.63
2018-04-29T22:14:20.297Z,5.60
2018-04-29T22:16:46.867Z,6.03
2018-04-29T22:19:13.429Z,5.10
2018-04-29T22:21:40.151Z,7.10
2018-04-29T22:24:06.709Z,6.37
2018-04-29T22:26:33.299Z,7.10
2018-04-29T22:28:59.909Z,6.90
2018-04-29T22:31:26.505Z,7.10
2018-04-29T22:33:53.049Z,7.20
2018-04-29T22:36:20.810Z,7.17
2018-04-29T22:38:47.375Z,7.50
2018-04-29T22:41:13.942Z,7.33
2018-04-29T22:43:40.513Z,7.90
2018-04-29T22:46:07.087Z,7.97
2018-04-29T22:48:33.661Z,9.30
2018-04-29T22:51:00.232Z,9.50
2018-04-29T22:53:26.813Z,10.77
2018-04-29T22:55:53.376Z,9.67
2018-04-29T22:58:20.671Z,9.97
2018-04-29T23:00:47.241Z,12.77
2018-04-29T23:03:13.857Z,14.10
2018-04-29T23:05:40.437Z,16.30
2018-04-29T23:08:07.017Z,19.87
2018-04-29T23:10:33.605Z,25.07
2018-04-29T23:13:00.198Z,20.57
2018-04-29T23:15:26.814Z,22.83
2018-04-29T23:17:53.458Z,23.50
2018-04-29T23:20:20.044Z,23.50
2018-04-29T23:22:46.621Z,21.73
2018-04-29T23:25:13.217Z,21.57
2018-04-29T23:27:39.799Z,18.60
2018-04-29T23:30:06.417Z,18.57
2018-04-29T23:32:33.005Z,18.87
2018-04-29T23:34:59.578Z,17.10
2018-04-29T23:37:26.157Z,13.73
2018-04-29T23:39:52.737Z,13.20
2018-04-29T23:42:19.321Z,12.97
2018-04-29T23:44:45.894Z,13.03
2018-04-29T23:47:13.385Z,12.73
2018-04-29T23:49:39.957Z,11.20
2018-04-29T23:52:06.879Z,10.13
2018-04-29T23:54:33.467Z,9.03
2018-04-29T23:57:00.435Z,9.57
2018-04-29T23:59:27.006Z,10.10
